sensor_id;sensor_type;location;lat;lon;timestamp;pressure;altitude;pressure_sealevel;temperature;humidity
50125;BME280;36023;48.670;6.184;2023-06-14T00:01:06;98494.72;;;23.93;25.57
50125;BME280;36023;48.670;6.184;2023-06-14T00:03:31;98497.81;;;23.98;25.50
50125;BME280;36023;48.670;6.184;2023-06-14T00:05:58;98493.72;;;23.94;25.77
50125;BME280;36023;48.670;6.184;2023-06-14T00:08:23;98493.06;;;23.80;25.72
50125;BME280;36023;48.670;6.184;2023-06-14T00:10:51;98497.16;;;23.84;25.79
50125;BME280;36023;48.670;6.184;2023-06-14T00:13:16;98492.56;;;23.86;25.93
50125;BME280;36023;48.670;6.184;2023-06-14T00:15:42;98485.75;;;23.84;25.81
50125;BME280;36023;48.670;6.184;2023-06-14T00:18:08;98493.34;;;23.77;25.71
50125;BME280;36023;48.670;6.184;2023-06-14T00:20:36;98489.03;;;23.76;25.98
50125;BME280;36023;48.670;6.184;2023-06-14T00:23:02;98493.72;;;23.73;25.71
50125;BME280;36023;48.670;6.184;2023-06-14T00:25:28;98492.31;;;23.69;26.01
50125;BME280;36023;48.670;6.184;2023-06-14T00:27:56;98493.84;;;23.71;25.88
50125;BME280;36023;48.670;6.184;2023-06-14T00:30:21;98493.28;;;23.68;25.95
50125;BME280;36023;48.670;6.184;2023-06-14T00:32:49;98494.94;;;23.69;25.96
50125;BME280;36023;48.670;6.184;2023-06-14T00:35:17;98494.13;;;23.68;26.01
50125;BME280;36023;48.670;6.184;2023-06-14T00:37:42;98489.91;;;23.66;26.03
50125;BME280;36023;48.670;6.184;2023-06-14T00:40:08;98496.56;;;23.60;25.99
50125;BME280;36023;48.670;6.184;2023-06-14T00:42:34;98496.56;;;23.60;26.36
50125;BME280;36023;48.670;6.184;2023-06-14T00:45:01;98494.84;;;23.59;26.11
50125;BME280;36023;48.670;6.184;2023-06-14T00:47:28;98495.09;;;23.56;26.19
50125;BME280;36023;48.670;6.184;2023-06-14T00:49:55;98499.19;;;23.49;26.39
50125;BME280;36023;48.670;6.184;2023-06-14T00:52:22;98501.22;;;23.56;26.48
50125;BME280;36023;48.670;6.184;2023-06-14T00:54:50;98497.41;;;23.60;26.27
50125;BME280;36023;48.670;6.184;2023-06-14T00:57:17;98498.09;;;23.62;26.47
50125;BME280;36023;48.670;6.184;2023-06-14T00:59:46;98491.75;;;23.54;26.61
50125;BME280;36023;48.670;6.184;2023-06-14T01:02:12;98497.56;;;23.37;26.68
50125;BME280;36023;48.670;6.184;2023-06-14T01:04:41;98498.34;;;23.48;26.64
50125;BME280;36023;48.670;6.184;2023-06-14T01:07:21;98492.28;;;23.37;26.78
50125;BME280;36023;48.670;6.184;2023-06-14T01:10:47;98492.88;;;23.40;26.62
50125;BME280;36023;48.670;6.184;2023-06-14T01:13:07;98496.34;;;23.41;26.72
50125;BME280;36023;48.670;6.184;2023-06-14T01:15:37;98496.59;;;23.38;26.80
50125;BME280;36023;48.670;6.184;2023-06-14T01:18:05;98499.72;;;23.43;26.78
50125;BME280;36023;48.670;6.184;2023-06-14T01:20:35;98495.50;;;23.40;26.95
50125;BME280;36023;48.670;6.184;2023-06-14T01:23:03;98502.59;;;23.40;27.09
50125;BME280;36023;48.670;6.184;2023-06-14T01:25:29;98503.31;;;23.42;27.11
50125;BME280;36023;48.670;6.184;2023-06-14T01:27:58;98505.00;;;23.43;27.38
50125;BME280;36023;48.670;6.184;2023-06-14T01:30:26;98502.72;;;23.38;27.35
50125;BME280;36023;48.670;6.184;2023-06-14T01:32:55;98506.28;;;23.16;27.56
50125;BME280;36023;48.670;6.184;2023-06-14T01:35:22;98506.66;;;23.00;27.72
50125;BME280;36023;48.670;6.184;2023-06-14T01:37:48;98508.25;;;22.92;27.92
50125;BME280;36023;48.670;6.184;2023-06-14T01:40:15;98505.47;;;22.82;28.10
50125;BME280;36023;48.670;6.184;2023-06-14T01:42:42;98502.94;;;22.80;28.43
50125;BME280;36023;48.670;6.184;2023-06-14T01:45:10;98514.72;;;22.99;28.28
50125;BME280;36023;48.670;6.184;2023-06-14T01:47:36;98512.31;;;23.07;28.13
50125;BME280;36023;48.670;6.184;2023-06-14T01:50:03;98510.97;;;23.13;27.94
50125;BME280;36023;48.670;6.184;2023-06-14T01:52:30;98522.72;;;23.08;27.79
50125;BME280;36023;48.670;6.184;2023-06-14T01:54:56;98516.75;;;22.95;28.41
50125;BME280;36023;48.670;6.184;2023-06-14T01:57:24;98511.13;;;22.89;28.26
50125;BME280;36023;48.670;6.184;2023-06-14T01:59:53;98515.69;;;22.87;28.45
50125;BME280;36023;48.670;6.184;2023-06-14T02:02:19;98511.84;;;22.91;28.56
50125;BME280;36023;48.670;6.184;2023-06-14T02:04:44;98510.88;;;22.92;28.63
50125;BME280;36023;48.670;6.184;2023-06-14T02:07:13;98513.75;;;23.00;28.57
50125;BME280;36023;48.670;6.184;2023-06-14T02:09:41;98511.22;;;22.98;28.51
50125;BME280;36023;48.670;6.184;2023-06-14T02:12:07;98511.94;;;23.00;28.61
50125;BME280;36023;48.670;6.184;2023-06-14T02:14:33;98512.66;;;23.02;28.18
50125;BME280;36023;48.670;6.184;2023-06-14T02:16:59;98520.97;;;22.98;28.38
50125;BME280;36023;48.670;6.184;2023-06-14T02:19:26;98515.06;;;22.94;28.43
50125;BME280;36023;48.670;6.184;2023-06-14T02:21:52;98515.19;;;22.93;28.49
50125;BME280;36023;48.670;6.184;2023-06-14T02:24:18;98517.69;;;22.83;28.59
50125;BME280;36023;48.670;6.184;2023-06-14T02:26:43;98510.88;;;22.80;28.99
50125;BME280;36023;48.670;6.184;2023-06-14T02:29:14;98516.38;;;22.77;29.20
50125;BME280;36023;48.670;6.184;2023-06-14T02:31:40;98515.91;;;22.72;29.13
50125;BME280;36023;48.670;6.184;2023-06-14T02:34:07;98515.53;;;22.77;28.96
50125;BME280;36023;48.670;6.184;2023-06-14T02:36:36;98518.31;;;22.75;29.18
50125;BME280;36023;48.670;6.184;2023-06-14T02:39:08;98510.25;;;22.77;29.05
50125;BME280;36023;48.670;6.184;2023-06-14T02:41:39;98515.53;;;22.77;29.13
50125;BME280;36023;48.670;6.184;2023-06-14T02:44:06;98514.69;;;22.76;29.23
50125;BME280;36023;48.670;6.184;2023-06-14T02:46:34;98523.84;;;22.72;29.50
50125;BME280;36023;48.670;6.184;2023-06-14T02:48:59;98529.34;;;22.69;29.26
50125;BME280;36023;48.670;6.184;2023-06-14T02:51:25;98532.09;;;22.68;29.39
50125;BME280;36023;48.670;6.184;2023-06-14T02:53:51;98532.22;;;22.66;29.63
50125;BME280;36023;48.670;6.184;2023-06-14T02:56:16;98529.13;;;22.72;29.67
50125;BME280;36023;48.670;6.184;2023-06-14T02:58:43;98524.91;;;22.59;30.22
50125;BME280;36023;48.670;6.184;2023-06-14T03:01:10;98528.13;;;22.62;30.30
50125;BME280;36023;48.670;6.184;2023-06-14T03:03:38;98522.38;;;22.68;30.41
50125;BME280;36023;48.670;6.184;2023-06-14T03:06:04;98531.63;;;22.74;30.27
50125;BME280;36023;48.670;6.184;2023-06-14T03:08:32;98529.72;;;22.65;30.32
50125;BME280;36023;48.670;6.184;2023-06-14T03:11:04;98529.94;;;22.62;30.61
50125;BME280;36023;48.670;6.184;2023-06-14T03:13:35;98538.22;;;22.57;31.03
50125;BME280;36023;48.670;6.184;2023-06-14T03:16:02;98539.66;;;22.50;31.05
50125;BME280;36023;48.670;6.184;2023-06-14T03:18:29;98544.44;;;22.45;31.03
50125;BME280;36023;48.670;6.184;2023-06-14T03:20:57;98545.78;;;22.50;31.12
50125;BME280;36023;48.670;6.184;2023-06-14T03:23:24;98551.66;;;22.54;30.42
50125;BME280;36023;48.670;6.184;2023-06-14T03:25:51;98551.53;;;22.56;30.90
50125;BME280;36023;48.670;6.184;2023-06-14T03:28:17;98550.44;;;22.47;30.87
50125;BME280;36023;48.670;6.184;2023-06-14T03:30:42;98542.06;;;22.53;30.68
50125;BME280;36023;48.670;6.184;2023-06-14T03:33:10;98549.97;;;22.42;30.19
50125;BME280;36023;48.670;6.184;2023-06-14T03:35:38;98545.50;;;22.20;30.93
50125;BME280;36023;48.670;6.184;2023-06-14T03:38:04;98547.31;;;22.31;30.43
50125;BME280;36023;48.670;6.184;2023-06-14T03:40:31;98556.31;;;22.28;30.20
50125;BME280;36023;48.670;6.184;2023-06-14T03:43:03;98554.63;;;22.27;30.44
50125;BME280;36023;48.670;6.184;2023-06-14T03:45:28;98558.31;;;22.24;30.21
50125;BME280;36023;48.670;6.184;2023-06-14T03:47:55;98555.66;;;22.13;30.53
50125;BME280;36023;48.670;6.184;2023-06-14T03:50:23;98559.47;;;22.09;30.40
50125;BME280;36023;48.670;6.184;2023-06-14T03:52:49;98562.38;;;22.17;30.25
50125;BME280;36023;48.670;6.184;2023-06-14T03:55:16;98564.09;;;22.18;30.38
50125;BME280;36023;48.670;6.184;2023-06-14T03:57:43;98563.38;;;22.28;30.46
50125;BME280;36023;48.670;6.184;2023-06-14T04:00:17;98566.97;;;22.27;30.18
50125;BME280;36023;48.670;6.184;2023-06-14T04:02:44;98565.25;;;22.25;30.39
50125;BME280;36023;48.670;6.184;2023-06-14T04:05:10;98577.75;;;22.23;30.47
50125;BME280;36023;48.670;6.184;2023-06-14T04:07:39;98575.22;;;22.22;30.46
50125;BME280;36023;48.670;6.184;2023-06-14T04:10:12;98580.03;;;22.28;30.65
50125;BME280;36023;48.670;6.184;2023-06-14T04:12:39;98582.56;;;22.30;30.68
50125;BME280;36023;48.670;6.184;2023-06-14T04:15:05;98580.41;;;22.35;30.50
50125;BME280;36023;48.670;6.184;2023-06-14T04:17:37;98588.34;;;22.35;30.49
50125;BME280;36023;48.670;6.184;2023-06-14T04:20:06;98587.50;;;22.34;30.88
50125;BME280;36023;48.670;6.184;2023-06-14T04:22:34;98600.31;;;22.39;30.76
50125;BME280;36023;48.670;6.184;2023-06-14T04:25:00;98593.88;;;22.43;30.85
50125;BME280;36023;48.670;6.184;2023-06-14T04:27:27;98596.97;;;22.48;30.74
50125;BME280;36023;48.670;6.184;2023-06-14T04:29:54;98607.06;;;22.43;31.15
50125;BME280;36023;48.670;6.184;2023-06-14T04:32:28;98609.47;;;22.46;31.25
50125;BME280;36023;48.670;6.184;2023-06-14T04:35:00;98609.13;;;22.50;31.17
50125;BME280;36023;48.670;6.184;2023-06-14T04:37:28;98614.41;;;22.50;31.49
50125;BME280;36023;48.670;6.184;2023-06-14T04:39:56;98623.63;;;22.56;31.88
50125;BME280;36023;48.670;6.184;2023-06-14T04:42:23;98617.63;;;22.54;32.24
50125;BME280;36023;48.670;6.184;2023-06-14T04:44:58;98615.25;;;22.62;32.19
50125;BME280;36023;48.670;6.184;2023-06-14T04:47:24;98617.75;;;22.64;32.25
50125;BME280;36023;48.670;6.184;2023-06-14T04:49:57;98630.38;;;22.71;32.32
50125;BME280;36023;48.670;6.184;2023-06-14T04:52:23;98628.34;;;22.75;32.42
50125;BME280;36023;48.670;6.184;2023-06-14T04:54:52;98628.47;;;22.73;32.37
50125;BME280;36023;48.670;6.184;2023-06-14T04:57:20;98625.59;;;22.76;32.73
50125;BME280;36023;48.670;6.184;2023-06-14T04:59:49;98623.53;;;22.80;32.76
50125;BME280;36023;48.670;6.184;2023-06-14T05:02:22;98628.81;;;22.80;32.60
50125;BME280;36023;48.670;6.184;2023-06-14T05:04:48;98632.31;;;22.80;32.46
50125;BME280;36023;48.670;6.184;2023-06-14T05:07:14;98629.44;;;22.84;32.46
50125;BME280;36023;48.670;6.184;2023-06-14T05:09:41;98632.81;;;22.86;32.42
50125;BME280;36023;48.670;6.184;2023-06-14T05:12:07;98637.47;;;22.82;32.25
50125;BME280;36023;48.670;6.184;2023-06-14T05:14:36;98641.91;;;22.82;31.96
50125;BME280;36023;48.670;6.184;2023-06-14T05:17:04;98636.31;;;22.86;31.93
50125;BME280;36023;48.670;6.184;2023-06-14T05:19:30;98635.13;;;22.90;31.58
50125;BME280;36023;48.670;6.184;2023-06-14T05:21:55;98637.75;;;22.90;31.70
50125;BME280;36023;48.670;6.184;2023-06-14T05:24:21;98639.94;;;22.96;31.18
50125;BME280;36023;48.670;6.184;2023-06-14T05:26:47;98642.19;;;23.01;31.04
50125;BME280;36023;48.670;6.184;2023-06-14T05:29:14;98641.25;;;23.13;31.33
50125;BME280;36023;48.670;6.184;2023-06-14T05:31:39;98648.94;;;23.27;31.23
50125;BME280;36023;48.670;6.184;2023-06-14T05:34:05;98647.25;;;23.38;31.26
50125;BME280;36023;48.670;6.184;2023-06-14T05:36:31;98650.38;;;23.43;31.34
50125;BME280;36023;48.670;6.184;2023-06-14T05:38:56;98647.22;;;23.49;31.05
50125;BME280;36023;48.670;6.184;2023-06-14T05:41:25;98645.88;;;23.54;31.26
50125;BME280;36023;48.670;6.184;2023-06-14T05:43:54;98667.41;;;23.61;30.86
50125;BME280;36023;48.670;6.184;2023-06-14T05:46:20;98654.44;;;23.69;31.64
50125;BME280;36023;48.670;6.184;2023-06-14T05:48:49;98659.81;;;23.79;31.97
50125;BME280;36023;48.670;6.184;2023-06-14T05:51:15;98663.50;;;23.87;32.24
50125;BME280;36023;48.670;6.184;2023-06-14T05:53:47;98650.16;;;23.89;31.19
50125;BME280;36023;48.670;6.184;2023-06-14T05:56:14;98645.50;;;23.81;30.87
50125;BME280;36023;48.670;6.184;2023-06-14T05:58:40;98649.34;;;23.77;30.61
50125;BME280;36023;48.670;6.184;2023-06-14T06:01:10;98649.50;;;23.76;30.67
50125;BME280;36023;48.670;6.184;2023-06-14T06:03:35;98652.97;;;23.76;30.59
50125;BME280;36023;48.670;6.184;2023-06-14T06:06:01;98661.88;;;23.75;30.12
50125;BME280;36023;48.670;6.184;2023-06-14T06:08:28;98659.94;;;23.77;30.29
50125;BME280;36023;48.670;6.184;2023-06-14T06:10:54;98662.44;;;23.79;30.17
50125;BME280;36023;48.670;6.184;2023-06-14T06:13:19;98663.16;;;23.81;30.09
50125;BME280;36023;48.670;6.184;2023-06-14T06:15:45;98668.22;;;23.84;29.81
50125;BME280;36023;48.670;6.184;2023-06-14T06:18:11;98662.78;;;23.85;29.74
50125;BME280;36023;48.670;6.184;2023-06-14T06:20:38;98666.00;;;23.89;29.93
50125;BME280;36023;48.670;6.184;2023-06-14T06:23:04;98661.59;;;23.89;29.71
50125;BME280;36023;48.670;6.184;2023-06-14T06:25:30;98670.25;;;23.92;29.79
50125;BME280;36023;48.670;6.184;2023-06-14T06:27:57;98662.19;;;23.93;29.83
50125;BME280;36023;48.670;6.184;2023-06-14T06:30:24;98669.84;;;23.96;29.40
50125;BME280;36023;48.670;6.184;2023-06-14T06:32:51;98667.94;;;23.98;29.52
50125;BME280;36023;48.670;6.184;2023-06-14T06:35:17;98662.50;;;24.00;29.62
50125;BME280;36023;48.670;6.184;2023-06-14T06:37:43;98666.72;;;24.02;29.43
50125;BME280;36023;48.670;6.184;2023-06-14T06:40:09;98670.06;;;24.04;29.49
50125;BME280;36023;48.670;6.184;2023-06-14T06:42:35;98667.31;;;24.06;29.31
50125;BME280;36023;48.670;6.184;2023-06-14T06:45:04;98670.66;;;24.08;29.38
50125;BME280;36023;48.670;6.184;2023-06-14T06:47:34;98672.34;;;24.09;29.35
50125;BME280;36023;48.670;6.184;2023-06-14T06:49:59;98672.22;;;24.10;29.27
50125;BME280;36023;48.670;6.184;2023-06-14T06:52:25;98678.25;;;24.12;29.65
50125;BME280;36023;48.670;6.184;2023-06-14T06:54:50;98675.47;;;24.14;29.35
50125;BME280;36023;48.670;6.184;2023-06-14T06:57:20;98674.50;;;24.15;29.33
50125;BME280;36023;48.670;6.184;2023-06-14T06:59:50;98670.75;;;24.17;29.33
50125;BME280;36023;48.670;6.184;2023-06-14T07:02:16;98679.38;;;24.19;29.56
50125;BME280;36023;48.670;6.184;2023-06-14T07:04:42;98680.22;;;24.20;29.49
50125;BME280;36023;48.670;6.184;2023-06-14T07:07:07;98673.03;;;24.22;29.58
50125;BME280;36023;48.670;6.184;2023-06-14T07:09:35;98685.28;;;24.23;29.26
50125;BME280;36023;48.670;6.184;2023-06-14T07:12:00;98679.03;;;24.24;29.30
50125;BME280;36023;48.670;6.184;2023-06-14T07:14:26;98679.72;;;24.26;29.63
50125;BME280;36023;48.670;6.184;2023-06-14T07:16:52;98680.56;;;24.27;29.38
50125;BME280;36023;48.670;6.184;2023-06-14T07:19:17;98681.31;;;24.29;29.52
50125;BME280;36023;48.670;6.184;2023-06-14T07:21:44;98675.88;;;24.30;29.53
50125;BME280;36023;48.670;6.184;2023-06-14T07:24:10;98677.53;;;24.31;29.33
50125;BME280;36023;48.670;6.184;2023-06-14T07:26:36;98681.03;;;24.32;29.46
50125;BME280;36023;48.670;6.184;2023-06-14T07:29:01;98683.56;;;24.33;29.57
50125;BME280;36023;48.670;6.184;2023-06-14T07:31:27;98686.22;;;24.33;29.64
50125;BME280;36023;48.670;6.184;2023-06-14T07:33:53;98691.28;;;24.36;29.63
50125;BME280;36023;48.670;6.184;2023-06-14T07:36:19;98686.00;;;24.36;29.46
50125;BME280;36023;48.670;6.184;2023-06-14T07:38:45;98691.28;;;24.36;29.59
50125;BME280;36023;48.670;6.184;2023-06-14T07:41:11;98689.34;;;24.38;29.88
50125;BME280;36023;48.670;6.184;2023-06-14T07:43:37;98684.06;;;24.38;29.98
50125;BME280;36023;48.670;6.184;2023-06-14T07:46:05;98690.88;;;24.41;29.75
50125;BME280;36023;48.670;6.184;2023-06-14T07:48:31;98691.72;;;24.41;29.87
50125;BME280;36023;48.670;6.184;2023-06-14T07:50:57;98693.41;;;24.42;29.69
50125;BME280;36023;48.670;6.184;2023-06-14T07:53:22;98697.72;;;24.43;29.75
50125;BME280;36023;48.670;6.184;2023-06-14T07:55:48;98694.13;;;24.44;30.08
50125;BME280;36023;48.670;6.184;2023-06-14T07:58:14;98691.50;;;24.44;29.74
50125;BME280;36023;48.670;6.184;2023-06-14T08:00:40;98689.53;;;24.47;29.81
50125;BME280;36023;48.670;6.184;2023-06-14T08:03:06;98684.13;;;24.48;30.02
50125;BME280;36023;48.670;6.184;2023-06-14T08:05:31;98688.44;;;24.49;30.23
50125;BME280;36023;48.670;6.184;2023-06-14T08:07:57;98683.13;;;24.49;30.16
50125;BME280;36023;48.670;6.184;2023-06-14T08:10:23;98684.81;;;24.50;29.96
50125;BME280;36023;48.670;6.184;2023-06-14T08:12:49;98684.72;;;24.52;30.02
50125;BME280;36023;48.670;6.184;2023-06-14T08:15:16;98683.84;;;24.51;30.04
50125;BME280;36023;48.670;6.184;2023-06-14T08:17:45;98684.72;;;24.52;30.35
50125;BME280;36023;48.670;6.184;2023-06-14T08:20:12;98685.41;;;24.54;30.24
50125;BME280;36023;48.670;6.184;2023-06-14T08:22:40;98691.56;;;24.54;30.23
50125;BME280;36023;48.670;6.184;2023-06-14T08:25:08;98686.25;;;24.54;30.40
50125;BME280;36023;48.670;6.184;2023-06-14T08:27:34;98686.13;;;24.56;30.39
50125;BME280;36023;48.670;6.184;2023-06-14T08:29:59;98690.44;;;24.57;30.55
50125;BME280;36023;48.670;6.184;2023-06-14T08:32:25;98690.31;;;24.58;30.28
50125;BME280;36023;48.670;6.184;2023-06-14T08:34:52;98693.78;;;24.59;30.37
50125;BME280;36023;48.670;6.184;2023-06-14T08:37:17;98687.66;;;24.58;30.42
50125;BME280;36023;48.670;6.184;2023-06-14T08:39:43;98688.25;;;24.62;30.59
50125;BME280;36023;48.670;6.184;2023-06-14T08:42:09;98694.53;;;24.61;30.61
50125;BME280;36023;48.670;6.184;2023-06-14T08:44:36;98698.84;;;24.62;30.46
50125;BME280;36023;48.670;6.184;2023-06-14T08:47:02;98693.56;;;24.62;30.67
50125;BME280;36023;48.670;6.184;2023-06-14T08:49:31;98694.25;;;24.64;30.67
50125;BME280;36023;48.670;6.184;2023-06-14T08:51:59;98695.09;;;24.64;30.88
50125;BME280;36023;48.670;6.184;2023-06-14T08:54:26;98700.25;;;24.66;30.70
50125;BME280;36023;48.670;6.184;2023-06-14T08:56:53;98697.63;;;24.66;30.75
50125;BME280;36023;48.670;6.184;2023-06-14T08:59:28;98704.63;;;24.67;30.83
50125;BME280;36023;48.670;6.184;2023-06-14T09:01:58;98701.97;;;24.67;30.83
50125;BME280;36023;48.670;6.184;2023-06-14T09:04:25;98699.31;;;24.67;30.88
50125;BME280;36023;48.670;6.184;2023-06-14T09:06:55;98706.28;;;24.68;30.78
50125;BME280;36023;48.670;6.184;2023-06-14T09:09:22;98703.66;;;24.68;30.75
50125;BME280;36023;48.670;6.184;2023-06-14T09:11:51;98700.03;;;24.69;30.78
50125;BME280;36023;48.670;6.184;2023-06-14T09:14:23;98692.06;;;24.69;30.90
50125;BME280;36023;48.670;6.184;2023-06-14T09:16:53;98702.53;;;24.70;31.04
50125;BME280;36023;48.670;6.184;2023-06-14T09:19:25;98700.72;;;24.71;30.77
50125;BME280;36023;48.670;6.184;2023-06-14T09:21:52;98700.72;;;24.71;31.14
50125;BME280;36023;48.670;6.184;2023-06-14T09:24:19;98702.41;;;24.72;31.16
50125;BME280;36023;48.670;6.184;2023-06-14T09:26:47;98704.06;;;24.73;31.12
50125;BME280;36023;48.670;6.184;2023-06-14T09:29:13;98703.22;;;24.72;31.22
50125;BME280;36023;48.670;6.184;2023-06-14T09:31:38;98705.75;;;24.74;30.99
50125;BME280;36023;48.670;6.184;2023-06-14T09:34:04;98711.03;;;24.74;31.04
50125;BME280;36023;48.670;6.184;2023-06-14T09:36:31;98712.75;;;24.75;31.03
50125;BME280;36023;48.670;6.184;2023-06-14T09:38:59;98706.59;;;24.74;31.17
50125;BME280;36023;48.670;6.184;2023-06-14T09:41:40;98707.31;;;24.77;31.40
50125;BME280;36023;48.670;6.184;2023-06-14T09:44:08;98718.75;;;24.77;31.12
50125;BME280;36023;48.670;6.184;2023-06-14T09:46:36;98711.66;;;24.78;31.47
50125;BME280;36023;48.670;6.184;2023-06-14T09:49:03;98717.78;;;24.78;31.54
50125;BME280;36023;48.670;6.184;2023-06-14T09:51:29;98716.81;;;24.79;31.36
50125;BME280;36023;48.670;6.184;2023-06-14T09:54:00;98713.31;;;24.79;31.53
50125;BME280;36023;48.670;6.184;2023-06-14T09:56:28;98718.47;;;24.80;31.34
50125;BME280;36023;48.670;6.184;2023-06-14T09:58:56;98709.56;;;24.81;31.34
50125;BME280;36023;48.670;6.184;2023-06-14T10:01:30;98717.50;;;24.81;31.48
50125;BME280;36023;48.670;6.184;2023-06-14T10:04:01;98712.22;;;24.81;31.63
50125;BME280;36023;48.670;6.184;2023-06-14T10:06:28;98713.88;;;24.82;31.35
50125;BME280;36023;48.670;6.184;2023-06-14T10:08:59;98722.69;;;24.83;31.34
50125;BME280;36023;48.670;6.184;2023-06-14T10:11:26;98713.88;;;24.82;31.50
50125;BME280;36023;48.670;6.184;2023-06-14T10:13:56;98711.13;;;24.84;31.55
50125;BME280;36023;48.670;6.184;2023-06-14T10:16:35;98717.28;;;24.84;31.46
50125;BME280;36023;48.670;6.184;2023-06-14T10:21:55;98705.69;;;24.85;31.55
50125;BME280;36023;48.670;6.184;2023-06-14T10:24:30;98706.53;;;24.86;31.44
50125;BME280;36023;48.670;6.184;2023-06-14T10:26:58;98705.56;;;24.87;31.58
50125;BME280;36023;48.670;6.184;2023-06-14T10:29:25;98701.09;;;24.87;31.66
50125;BME280;36023;48.670;6.184;2023-06-14T10:31:56;98691.34;;;24.88;31.62
50125;BME280;36023;48.670;6.184;2023-06-14T10:34:28;98696.66;;;24.88;31.60
50125;BME280;36023;48.670;6.184;2023-06-14T10:37:05;98686.88;;;24.88;31.61
50125;BME280;36023;48.670;6.184;2023-06-14T10:39:43;98691.34;;;24.88;31.47
50125;BME280;36023;48.670;6.184;2023-06-14T10:42:12;98684.25;;;24.88;31.44
50125;BME280;36023;48.670;6.184;2023-06-14T10:44:45;98692.03;;;24.90;31.46
50125;BME280;36023;48.670;6.184;2023-06-14T10:47:32;98691.22;;;24.89;31.43
50125;BME280;36023;48.670;6.184;2023-06-14T10:50:11;98692.03;;;24.90;31.49
50125;BME280;36023;48.670;6.184;2023-06-14T10:52:40;98697.25;;;24.91;31.49
50125;BME280;36023;48.670;6.184;2023-06-14T10:55:18;98697.09;;;24.93;31.29
50125;BME280;36023;48.670;6.184;2023-06-14T10:57:48;98696.28;;;24.92;31.46
50125;BME280;36023;48.670;6.184;2023-06-14T11:00:21;98696.28;;;24.92;31.34
50125;BME280;36023;48.670;6.184;2023-06-14T11:02:52;98698.78;;;24.94;31.50
50125;BME280;36023;48.670;6.184;2023-06-14T11:05:26;98690.84;;;24.94;31.60
50125;BME280;36023;48.670;6.184;2023-06-14T11:08:07;98693.34;;;24.95;31.45
50125;BME280;36023;48.670;6.184;2023-06-14T11:10:42;98683.59;;;24.96;31.48
50125;BME280;36023;48.670;6.184;2023-06-14T11:13:08;98687.06;;;24.96;31.58
50125;BME280;36023;48.670;6.184;2023-06-14T11:15:35;98687.06;;;24.96;31.51
50125;BME280;36023;48.670;6.184;2023-06-14T11:18:03;98688.63;;;24.99;31.38
50125;BME280;36023;48.670;6.184;2023-06-14T11:20:32;98688.63;;;24.99;31.52
50125;BME280;36023;48.670;6.184;2023-06-14T11:22:59;98694.78;;;24.99;31.44
50125;BME280;36023;48.670;6.184;2023-06-14T11:25:25;98685.84;;;25.00;31.40
50125;BME280;36023;48.670;6.184;2023-06-14T11:27:52;98679.72;;;25.00;31.32
50125;BME280;36023;48.670;6.184;2023-06-14T11:30:18;98673.44;;;25.01;31.57
50125;BME280;36023;48.670;6.184;2023-06-14T11:32:47;98676.94;;;25.01;31.18
50125;BME280;36023;48.670;6.184;2023-06-14T11:35:16;98679.59;;;25.01;31.59
50125;BME280;36023;48.670;6.184;2023-06-14T11:37:42;98679.47;;;25.03;31.39
50125;BME280;36023;48.670;6.184;2023-06-14T11:40:10;98675.13;;;25.02;31.37
50125;BME280;36023;48.670;6.184;2023-06-14T11:42:40;98672.38;;;25.04;31.38
50125;BME280;36023;48.670;6.184;2023-06-14T11:45:12;98674.19;;;25.03;31.36
50125;BME280;36023;48.670;6.184;2023-06-14T11:47:39;98672.38;;;25.04;31.25
50125;BME280;36023;48.670;6.184;2023-06-14T11:50:08;98670.56;;;25.04;31.48
50125;BME280;36023;48.670;6.184;2023-06-14T11:52:37;98667.75;;;25.06;31.30
50125;BME280;36023;48.670;6.184;2023-06-14T11:55:03;98673.06;;;25.06;31.42
50125;BME280;36023;48.670;6.184;2023-06-14T11:57:34;98663.34;;;25.06;31.28
50125;BME280;36023;48.670;6.184;2023-06-14T12:00:11;98658.88;;;25.07;31.46
50125;BME280;36023;48.670;6.184;2023-06-14T12:02:38;98663.19;;;25.08;31.23
50125;BME280;36023;48.670;6.184;2023-06-14T12:05:06;98672.81;;;25.09;31.26
50125;BME280;36023;48.670;6.184;2023-06-14T12:07:37;98671.84;;;25.10;31.29
50125;BME280;36023;48.670;6.184;2023-06-14T12:10:09;98658.59;;;25.10;31.04
50125;BME280;36023;48.670;6.184;2023-06-14T12:12:39;98658.44;;;25.11;31.12
50125;BME280;36023;48.670;6.184;2023-06-14T12:15:06;98666.41;;;25.11;31.06
50125;BME280;36023;48.670;6.184;2023-06-14T12:17:36;98661.94;;;25.12;31.06
50125;BME280;36023;48.670;6.184;2023-06-14T12:20:10;98670.47;;;25.15;31.07
50125;BME280;36023;48.670;6.184;2023-06-14T12:22:37;98667.00;;;25.15;31.07
50125;BME280;36023;48.670;6.184;2023-06-14T12:25:04;98663.38;;;25.16;30.96
50125;BME280;36023;48.670;6.184;2023-06-14T12:27:30;98650.13;;;25.16;31.11
50125;BME280;36023;48.670;6.184;2023-06-14T12:30:03;98654.31;;;25.18;30.89
50125;BME280;36023;48.670;6.184;2023-06-14T12:32:31;98658.75;;;25.18;30.90
50125;BME280;36023;48.670;6.184;2023-06-14T12:34:57;98666.72;;;25.18;31.09
50125;BME280;36023;48.670;6.184;2023-06-14T12:37:23;98663.94;;;25.19;30.73
50125;BME280;36023;48.670;6.184;2023-06-14T12:39:49;98672.72;;;25.20;30.90
50125;BME280;36023;48.670;6.184;2023-06-14T12:42:16;98660.31;;;25.20;31.02
50125;BME280;36023;48.670;6.184;2023-06-14T12:44:41;98658.50;;;25.21;30.80
50125;BME280;36023;48.670;6.184;2023-06-14T12:47:08;98662.84;;;25.22;30.68
50125;BME280;36023;48.670;6.184;2023-06-14T12:49:34;98660.06;;;25.23;30.86
50125;BME280;36023;48.670;6.184;2023-06-14T12:52:00;98667.03;;;25.24;30.80
50125;BME280;36023;48.670;6.184;2023-06-14T12:54:26;98662.84;;;25.22;30.94
50125;BME280;36023;48.670;6.184;2023-06-14T12:56:51;98660.06;;;25.23;30.63
50125;BME280;36023;48.670;6.184;2023-06-14T12:59:18;98672.47;;;25.23;30.69
50125;BME280;36023;48.670;6.184;2023-06-14T13:01:45;98668.84;;;25.24;30.70
50125;BME280;36023;48.670;6.184;2023-06-14T13:04:12;98666.19;;;25.24;30.59
50125;BME280;36023;48.670;6.184;2023-06-14T13:06:38;98663.53;;;25.24;30.65